sensor_id;sensor_type;location;lat;lon;timestamp;P1;P2;P0
73148;PMS7003;61346;48.930;2.266;2022-10-16T06:03:18;1.00;1.00;0.00
73148;PMS7003;61346;48.930;2.266;2022-10-16T06:05:46;2.00;0.00;0.00
73148;PMS7003;61346;48.930;2.266;2022-10-16T08:18:43;0.75;0.75;0.75
73148;PMS7003;61346;48.930;2.266;2022-10-16T08:21:26;0.00;0.00;0.00
73148;PMS7003;61346;48.930;2.266;2022-10-16T08:23:52;1.00;0.00;0.00
73148;PMS7003;61346;48.930;2.266;2022-10-16T08:26:19;0.00;0.00;0.00
73148;PMS7003;61346;48.930;2.266;2022-10-16T08:28:49;1.00;1.00;1.00
73148;PMS7003;61346;48.930;2.266;2022-10-16T08:31:15;1.00;1.00;0.75
73148;PMS7003;61346;48.930;2.266;2022-10-16T08:33:42;1.25;1.25;1.25
73148;PMS7003;61346;48.930;2.266;2022-10-16T08:36:10;1.50;1.50;1.00
73148;PMS7003;61346;48.930;2.266;2022-10-16T08:38:36;1.50;1.50;1.00
73148;PMS7003;61346;48.930;2.266;2022-10-16T08:50:11;0.75;0.75;0.75
73148;PMS7003;61346;48.930;2.266;2022-10-16T09:10:27;2.00;2.00;2.00
73148;PMS7003;61346;48.930;2.266;2022-10-16T09:16:53;1.75;1.75;1.75
73148;PMS7003;61346;48.930;2.266;2022-10-16T09:19:53;1.00;1.00;1.00
73148;PMS7003;61346;48.930;2.266;2022-10-16T09:22:26;2.00;2.00;2.00
73148;PMS7003;61346;48.930;2.266;2022-10-16T09:24:54;3.25;3.25;2.50
73148;PMS7003;61346;48.930;2.266;2022-10-16T09:27:25;4.25;3.50;3.00
73148;PMS7003;61346;48.930;2.266;2022-10-16T09:29:51;3.75;3.00;2.50
73148;PMS7003;61346;48.930;2.266;2022-10-16T09:32:20;2.00;2.00;2.00
73148;PMS7003;61346;48.930;2.266;2022-10-16T09:34:58;0.25;0.25;0.25
73148;PMS7003;61346;48.930;2.266;2022-10-16T09:40:45;1.00;1.00;1.00
73148;PMS7003;61346;48.930;2.266;2022-10-16T09:43:27;2.00;2.00;2.00
73148;PMS7003;61346;48.930;2.266;2022-10-16T09:46:21;2.00;2.00;1.50
73148;PMS7003;61346;48.930;2.266;2022-10-16T09:48:50;1.25;1.25;1.00
73148;PMS7003;61346;48.930;2.266;2022-10-16T09:51:19;2.00;2.00;2.00
73148;PMS7003;61346;48.930;2.266;2022-10-16T09:53:53;3.00;3.00;2.75
73148;PMS7003;61346;48.930;2.266;2022-10-16T09:56:30;3.25;2.00;2.00
73148;PMS7003;61346;48.930;2.266;2022-10-16T09:59:02;3.25;2.00;2.00
73148;PMS7003;61346;48.930;2.266;2022-10-16T10:01:44;3.00;3.00;2.50
73148;PMS7003;61346;48.930;2.266;2022-10-16T10:04:12;2.00;2.00;2.00
73148;PMS7003;61346;48.930;2.266;2022-10-16T10:06:43;5.00;3.25;2.50
73148;PMS7003;61346;48.930;2.266;2022-10-16T10:09:35;2.25;2.25;1.50
73148;PMS7003;61346;48.930;2.266;2022-10-16T10:12:24;3.25;3.25;3.00
73148;PMS7003;61346;48.930;2.266;2022-10-16T21:06:41;16.00;14.25;10.25
73148;PMS7003;61346;48.930;2.266;2022-10-16T21:09:08;15.50;14.50;10.00
73148;PMS7003;61346;48.930;2.266;2022-10-16T21:11:34;13.75;11.50;9.25
73148;PMS7003;61346;48.930;2.266;2022-10-16T21:14:04;14.25;14.00;10.50
73148;PMS7003;61346;48.930;2.266;2022-10-16T21:16:31;13.50;13.50;10.25
73148;PMS7003;61346;48.930;2.266;2022-10-16T21:18:58;13.75;13.50;10.00
73148;PMS7003;61346;48.930;2.266;2022-10-16T21:21:24;12.75;12.75;9.00
73148;PMS7003;61346;48.930;2.266;2022-10-16T21:23:52;14.25;13.00;10.75
73148;PMS7003;61346;48.930;2.266;2022-10-16T21:26:39;16.75;16.50;11.00
73148;PMS7003;61346;48.930;2.266;2022-10-16T21:29:10;14.50;12.75;10.75
73148;PMS7003;61346;48.930;2.266;2022-10-16T21:31:56;17.25;15.00;11.25
73148;PMS7003;61346;48.930;2.266;2022-10-16T21:34:22;13.00;11.50;9.50
73148;PMS7003;61346;48.930;2.266;2022-10-16T21:36:48;13.25;11.75;9.25
73148;PMS7003;61346;48.930;2.266;2022-10-16T21:39:14;16.25;15.25;11.00
73148;PMS7003;61346;48.930;2.266;2022-10-16T21:41:45;10.75;8.75;7.75
73148;PMS7003;61346;48.930;2.266;2022-10-16T21:44:13;15.75;14.50;10.75
73148;PMS7003;61346;48.930;2.266;2022-10-16T21:46:40;16.25;12.75;8.75
73148;PMS7003;61346;48.930;2.266;2022-10-16T21:49:10;12.50;12.50;10.00
73148;PMS7003;61346;48.930;2.266;2022-10-16T21:51:38;17.50;14.50;10.75
73148;PMS7003;61346;48.930;2.266;2022-10-16T21:54:07;12.50;12.50;10.75
73148;PMS7003;61346;48.930;2.266;2022-10-16T21:56:35;15.00;15.00;11.25
73148;PMS7003;61346;48.930;2.266;2022-10-16T21:59:01;13.25;10.25;7.75
73148;PMS7003;61346;48.930;2.266;2022-10-16T22:01:28;14.00;13.25;10.75
73148;PMS7003;61346;48.930;2.266;2022-10-16T22:03:54;14.50;13.25;9.50
73148;PMS7003;61346;48.930;2.266;2022-10-16T22:06:21;16.25;14.00;9.50
73148;PMS7003;61346;48.930;2.266;2022-10-16T22:08:49;12.75;11.25;9.25
73148;PMS7003;61346;48.930;2.266;2022-10-16T22:11:23;11.75;11.50;8.75
73148;PMS7003;61346;48.930;2.266;2022-10-16T22:13:51;10.25;10.25;8.75
73148;PMS7003;61346;48.930;2.266;2022-10-16T22:16:20;12.75;12.75;10.25
73148;PMS7003;61346;48.930;2.266;2022-10-16T22:18:47;13.75;11.00;9.00
73148;PMS7003;61346;48.930;2.266;2022-10-16T22:21:15;13.25;11.75;8.75
73148;PMS7003;61346;48.930;2.266;2022-10-16T22:23:46;8.75;8.75;6.25
73148;PMS7003;61346;48.930;2.266;2022-10-16T22:26:11;14.50;13.25;9.50
73148;PMS7003;61346;48.930;2.266;2022-10-16T22:28:37;12.75;11.50;9.00
73148;PMS7003;61346;48.930;2.266;2022-10-16T22:31:07;10.00;10.00;8.50
73148;PMS7003;61346;48.930;2.266;2022-10-16T22:33:38;9.75;8.25;8.00
73148;PMS7003;61346;48.930;2.266;2022-10-16T22:36:05;12.00;11.00;9.00
73148;PMS7003;61346;48.930;2.266;2022-10-16T22:38:49;10.25;9.75;7.25
73148;PMS7003;61346;48.930;2.266;2022-10-16T22:41:15;13.25;13.25;10.00
73148;PMS7003;61346;48.930;2.266;2022-10-16T22:43:42;11.00;11.00;9.25
73148;PMS7003;61346;48.930;2.266;2022-10-16T22:46:10;9.50;9.50;8.00
73148;PMS7003;61346;48.930;2.266;2022-10-16T22:48:38;11.75;11.25;8.25
73148;PMS7003;61346;48.930;2.266;2022-10-16T22:51:04;11.25;10.25;6.50
73148;PMS7003;61346;48.930;2.266;2022-10-16T22:53:30;13.75;12.75;9.50
73148;PMS7003;61346;48.930;2.266;2022-10-16T22:55:56;12.75;10.50;9.00
73148;PMS7003;61346;48.930;2.266;2022-10-16T22:58:22;10.25;10.25;8.25
73148;PMS7003;61346;48.930;2.266;2022-10-16T23:00:47;11.25;10.25;8.00
73148;PMS7003;61346;48.930;2.266;2022-10-16T23:03:13;15.00;10.00;8.50
73148;PMS7003;61346;48.930;2.266;2022-10-16T23:05:46;10.75;9.50;7.25
73148;PMS7003;61346;48.930;2.266;2022-10-16T23:08:14;10.75;9.75;8.50
73148;PMS7003;61346;48.930;2.266;2022-10-16T23:10:41;9.50;9.50;7.25
73148;PMS7003;61346;48.930;2.266;2022-10-16T23:13:08;7.50;7.25;5.75
73148;PMS7003;61346;48.930;2.266;2022-10-16T23:15:34;10.50;10.50;8.50
73148;PMS7003;61346;48.930;2.266;2022-10-16T23:17:59;8.50;8.50;6.75
73148;PMS7003;61346;48.930;2.266;2022-10-16T23:20:25;6.75;6.00;5.00
73148;PMS7003;61346;48.930;2.266;2022-10-16T23:22:50;9.00;9.00;7.25
73148;PMS7003;61346;48.930;2.266;2022-10-16T23:25:16;6.50;6.50;5.00
73148;PMS7003;61346;48.930;2.266;2022-10-16T23:27:41;11.00;9.00;6.75
73148;PMS7003;61346;48.930;2.266;2022-10-16T23:30:07;11.00;10.00;8.25
73148;PMS7003;61346;48.930;2.266;2022-10-16T23:32:33;9.25;8.00;6.25
73148;PMS7003;61346;48.930;2.266;2022-10-16T23:34:59;9.50;9.25;7.75
73148;PMS7003;61346;48.930;2.266;2022-10-16T23:37:24;8.50;8.50;7.25
73148;PMS7003;61346;48.930;2.266;2022-10-16T23:39:50;9.75;9.75;7.75
73148;PMS7003;61346;48.930;2.266;2022-10-16T23:42:16;9.50;9.50;7.25
73148;PMS7003;61346;48.930;2.266;2022-10-16T23:44:44;8.75;8.75;7.50
73148;PMS7003;61346;48.930;2.266;2022-10-16T23:47:11;10.25;8.25;7.25
73148;PMS7003;61346;48.930;2.266;2022-10-16T23:49:36;10.50;10.50;8.50
73148;PMS7003;61346;48.930;2.266;2022-10-16T23:52:01;10.75;10.25;7.75
73148;PMS7003;61346;48.930;2.266;2022-10-16T23:54:27;11.00;9.25;7.25
73148;PMS7003;61346;48.930;2.266;2022-10-16T23:56:53;11.25;9.75;7.75
73148;PMS7003;61346;48.930;2.266;2022-10-16T23:59:18;12.00;9.25;7.50
